Time;durP1;ratioP1;P1;durP2;ratioP2;P2;SDS_P1;SDS_P2;PMS_P1;PMS_P2;Temp;Humidity;BMP_temperature;BMP_pressure;BME280_temperature;BME280_humidity;BME280_pressure;Samples;Min_cycle;Max_cycle;Signal;HPM_P1;HPM_P2
2024/01/07 00:02:05;;;;;;;14.48;7.82;;;;;;;4.80;64.11;94122.50;6126796;23;20055;-86
2024/01/07 00:04:31;;;;;;;16.08;8.75;;;;;;;4.80;63.68;94109.63;6079172;23;20088;-86
2024/01/07 00:06:57;;;;;;;15.60;8.43;;;;;;;4.93;63.87;94112.47;6079211;23;20071;-85
2024/01/07 00:09:22;;;;;;;14.40;8.13;;;;;;;4.87;64.22;94113.13;6103843;23;20013;-86
2024/01/07 00:11:50;;;;;;;14.40;7.95;;;;;;;4.76;64.19;94113.50;6103087;23;20006;-86
2024/01/07 00:14:16;;;;;;;15.50;8.38;;;;;;;4.69;64.72;94101.28;6080102;23;20010;-86
2024/01/07 00:16:42;;;;;;;13.38;7.78;;;;;;;4.75;64.71;94114.47;6105035;23;20016;-85
2024/01/07 00:19:08;;;;;;;16.13;8.70;;;;;;;4.55;64.11;94096.88;6104775;23;20005;-86
2024/01/07 00:21:33;;;;;;;15.07;8.38;;;;;;;4.63;63.73;94104.56;6105069;23;20009;-86
2024/01/07 00:26:24;;;;;;;15.65;9.13;;;;;;;4.62;63.87;94107.28;6207955;23;20020;-85
2024/01/07 00:28:50;;;;;;;20.25;9.85;;;;;;;4.67;64.35;94102.44;6187181;23;20071;-85
2024/01/07 00:31:15;;;;;;;14.25;8.38;;;;;;;4.67;64.16;94116.13;6164222;23;20024;-85
2024/01/07 00:33:41;;;;;;;16.95;9.38;;;;;;;4.89;63.55;94113.75;6164312;23;20005;-85
2024/01/07 00:36:09;;;;;;;17.48;9.27;;;;;;;4.87;63.67;94108.78;6164133;23;20009;-86
2024/01/07 00:38:34;;;;;;;14.80;9.25;;;;;;;4.79;63.74;94098.50;6164115;23;20056;-86
2024/01/07 00:41:00;;;;;;;17.00;9.45;;;;;;;4.85;63.59;94094.44;6164532;23;20031;-86
2024/01/07 00:43:25;;;;;;;15.93;8.82;;;;;;;4.88;63.87;94107.00;6163925;23;20012;-85
2024/01/07 00:45:51;;;;;;;20.10;10.18;;;;;;;4.73;63.76;94090.66;6163388;23;20011;-86
2024/01/07 00:48:16;;;;;;;28.67;10.90;;;;;;;4.67;64.39;94098.09;6139345;23;20009;-86
2024/01/07 00:50:42;;;;;;;19.45;10.25;;;;;;;4.67;64.44;94107.59;6189064;23;20008;-86
2024/01/07 00:53:07;;;;;;;20.13;10.20;;;;;;;4.64;63.99;94103.56;6213355;23;20012;-86
2024/01/07 00:55:35;;;;;;;20.58;10.63;;;;;;;4.63;64.39;94116.63;6163886;23;20019;-86
2024/01/07 00:58:01;;;;;;;20.15;10.00;;;;;;;4.66;63.70;94109.38;6164389;23;20013;-86
2024/01/07 01:00:27;;;;;;;16.80;9.40;;;;;;;4.70;63.52;94105.50;6188854;23;20078;-86
2024/01/07 01:02:52;;;;;;;20.20;10.70;;;;;;;4.72;63.42;94110.44;6187967;23;20058;-85
2024/01/07 01:05:18;;;;;;;18.83;10.23;;;;;;;4.75;63.05;94109.31;6164017;23;20005;-86
2024/01/07 01:07:43;;;;;;;20.52;11.15;;;;;;;4.75;63.79;94114.47;6139205;23;20087;-86
2024/01/07 01:10:11;;;;;;;20.30;10.75;;;;;;;4.73;63.50;94126.72;6187097;23;20004;-86
2024/01/07 01:12:36;;;;;;;21.67;10.73;;;;;;;4.79;63.56;94123.47;6188361;23;20036;-86
2024/01/07 01:15:02;;;;;;;21.63;10.02;;;;;;;4.76;63.82;94106.59;6163804;23;20082;-86
2024/01/07 01:17:27;;;;;;;18.38;10.07;;;;;;;4.53;64.14;94109.09;6163559;23;20008;-85
2024/01/07 01:19:56;;;;;;;19.27;9.52;;;;;;;4.72;63.90;94123.31;6163393;23;20008;-86
2024/01/07 01:22:21;;;;;;;18.02;10.02;;;;;;;4.81;63.94;94124.91;6163620;23;20015;-86
2024/01/07 01:24:48;;;;;;;20.67;9.98;;;;;;;4.89;63.26;94124.03;6138853;23;20027;-86
2024/01/07 01:27:15;;;;;;;22.58;9.75;;;;;;;4.78;63.48;94125.25;6163736;23;20013;-86
2024/01/07 01:29:40;;;;;;;19.40;9.05;;;;;;;4.69;63.84;94115.94;6163634;23;20012;-85
2024/01/07 01:32:09;;;;;;;19.20;9.15;;;;;;;4.76;63.84;94121.22;6187971;23;20039;-86
2024/01/07 01:34:34;;;;;;;17.75;8.75;;;;;;;4.87;63.82;94131.97;6187775;23;20095;-85
2024/01/07 01:37:02;;;;;;;18.73;8.80;;;;;;;4.85;63.77;94125.38;6163473;23;20047;-86
2024/01/07 01:39:29;;;;;;;17.92;8.38;;;;;;;4.90;64.16;94125.66;6163645;23;20031;-86
2024/01/07 01:41:55;;;;;;;16.77;7.57;;;;;;;4.90;63.52;94126.47;6187626;23;20028;-86
2024/01/07 01:44:21;;;;;;;15.80;7.65;;;;;;;4.87;63.75;94126.81;6188039;23;20004;-85
2024/01/07 01:46:47;;;;;;;17.85;8.45;;;;;;;4.83;63.71;94128.09;6188135;23;20044;-86
2024/01/07 01:49:13;;;;;;;19.13;8.18;;;;;;;4.66;64.11;94124.81;6163919;23;20008;-86
2024/01/07 01:51:39;;;;;;;23.52;9.15;;;;;;;4.84;63.97;94128.94;6137255;23;20004;-86
2024/01/07 01:54:06;;;;;;;20.80;8.63;;;;;;;4.81;63.81;94130.03;6187090;23;20011;-85
2024/01/07 01:56:32;;;;;;;22.63;9.00;;;;;;;4.74;64.26;94128.31;6163509;23;20043;-85
2024/01/07 01:59:00;;;;;;;16.83;8.57;;;;;;;4.58;64.34;94127.41;6163305;23;20078;-86
2024/01/07 02:01:26;;;;;;;25.70;9.23;;;;;;;4.72;64.60;94135.41;6162892;23;20009;-85
2024/01/07 02:03:55;;;;;;;22.48;9.35;;;;;;;4.60;64.77;94114.38;6187845;23;20004;-86
2024/01/07 02:08:46;;;;;;;25.70;10.63;;;;;;;4.67;64.60;94118.69;6213603;23;20021;-86
2024/01/07 02:11:19;;;;;;;17.98;9.23;;;;;;;4.62;64.63;94136.41;6187792;23;20009;-85
2024/01/07 02:13:45;;;;;;;16.60;8.60;;;;;;;4.77;64.09;94122.84;6163256;23;20008;-86
2024/01/07 02:16:11;;;;;;;20.13;9.43;;;;;;;4.81;63.30;94126.69;6163223;23;20008;-86
2024/01/07 02:18:38;;;;;;;68.80;11.35;;;;;;;4.91;63.33;94132.41;6187666;23;20031;-86
2024/01/07 02:21:04;;;;;;;27.40;9.65;;;;;;;4.88;63.48;94132.78;6187920;23;19996;-85
2024/01/07 02:23:29;;;;;;;20.90;9.20;;;;;;;4.71;63.54;94124.31;6162408;23;20040;-86
2024/01/07 02:25:55;;;;;;;23.85;9.90;;;;;;;4.77;63.84;94118.47;6163048;23;20015;-86
2024/01/07 02:28:20;;;;;;;32.83;10.30;;;;;;;4.77;63.93;94117.69;6188342;23;20032;-86
2024/01/07 02:30:46;;;;;;;19.90;8.57;;;;;;;4.98;63.09;94125.63;6163421;23;20005;-85
2024/01/07 02:33:12;;;;;;;19.65;9.50;;;;;;;4.92;63.53;94121.16;6187856;23;20036;-86
2024/01/07 02:35:37;;;;;;;20.60;9.50;;;;;;;4.86;63.43;94119.25;6163571;23;20013;-86
2024/01/07 02:38:03;;;;;;;18.75;8.77;;;;;;;4.89;63.71;94129.19;6162991;23;20013;-86
2024/01/07 02:40:28;;;;;;;18.73;8.65;;;;;;;4.93;63.41;94133.06;6163654;23;20013;-86
2024/01/07 02:42:56;;;;;;;17.90;8.40;;;;;;;4.88;63.20;94136.13;6163236;23;20013;-86
2024/01/07 02:45:21;;;;;;;17.27;8.13;;;;;;;4.80;63.74;94125.09;6164041;23;20089;-86
2024/01/07 02:47:47;;;;;;;16.80;8.18;;;;;;;4.75;63.72;94112.69;6163517;23;20040;-86
2024/01/07 02:50:13;;;;;;;17.17;7.90;;;;;;;4.72;64.08;94122.53;6163780;23;20009;-86
2024/01/07 02:52:41;;;;;;;15.20;7.18;;;;;;;4.86;63.21;94125.19;6163300;23;20005;-86
2024/01/07 02:55:07;;;;;;;14.20;6.90;;;;;;;4.96;62.89;94119.03;6163630;23;20013;-86
2024/01/07 02:57:33;;;;;;;11.43;6.53;;;;;;;4.92;63.32;94118.56;6163468;23;20017;-86
2024/01/07 03:00:00;;;;;;;11.80;5.85;;;;;;;4.82;63.54;94128.28;6188111;23;20096;-86
2024/01/07 03:02:25;;;;;;;10.82;5.68;;;;;;;4.72;63.61;94115.59;6187076;23;20001;-85
2024/01/07 03:04:52;;;;;;;13.57;6.63;;;;;;;4.83;63.83;94129.88;6187760;23;20083;-85
2024/01/07 03:07:17;;;;;;;11.88;5.68;;;;;;;4.91;63.13;94127.25;6187115;23;20043;-86
2024/01/07 03:09:43;;;;;;;10.23;5.70;;;;;;;4.87;63.70;94123.41;6163232;23;20013;-86
2024/01/07 03:12:09;;;;;;;11.35;5.97;;;;;;;4.83;63.66;94122.16;6188074;23;20001;-85
2024/01/07 03:14:35;;;;;;;10.43;6.00;;;;;;;4.68;64.44;94117.72;6187948;23;20100;-85
2024/01/07 03:17:00;;;;;;;11.20;5.63;;;;;;;4.80;63.64;94130.25;6186984;23;20084;-86
2024/01/07 03:19:25;;;;;;;12.35;6.28;;;;;;;4.84;63.69;94129.72;6138527;23;20025;-85
2024/01/07 03:21:52;;;;;;;14.60;6.60;;;;;;;4.81;63.98;94124.09;6137065;23;20009;-86
2024/01/07 03:24:17;;;;;;;11.93;5.82;;;;;;;4.84;64.23;94127.16;6160922;23;20008;-85
2024/01/07 03:26:42;;;;;;;11.65;5.78;;;;;;;4.87;63.93;94120.84;6161151;23;20043;-86
2024/01/07 03:29:08;;;;;;;13.15;6.30;;;;;;;4.87;63.97;94113.94;6186091;23;20073;-86
2024/01/07 03:31:33;;;;;;;13.18;6.28;;;;;;;4.84;64.27;94127.16;6162273;23;20013;-85
2024/01/07 03:33:59;;;;;;;11.73;6.40;;;;;;;5.01;63.29;94133.03;6138507;23;20009;-86
2024/01/07 03:36:27;;;;;;;13.77;6.28;;;;;;;4.89;63.48;94137.75;6163325;23;20009;-86
2024/01/07 03:38:55;;;;;;;23.35;8.18;;;;;;;4.97;63.23;94120.63;6137739;23;20012;-85
2024/01/07 03:41:21;;;;;;;17.90;7.60;;;;;;;4.89;63.28;94135.19;6139204;23;20029;-85
2024/01/07 03:43:47;;;;;;;14.80;7.20;;;;;;;4.84;63.54;94134.09;6161255;23;20032;-86
2024/01/07 03:46:13;;;;;;;12.25;6.70;;;;;;;4.69;63.48;94133.97;6186879;23;20005;-86
2024/01/07 03:48:40;;;;;;;12.80;6.80;;;;;;;4.64;63.18;94134.47;6187367;23;20008;-85
2024/01/07 03:51:05;;;;;;;14.07;6.97;;;;;;;4.76;63.72;94136.69;6189481;23;20060;-86
2024/01/07 03:53:33;;;;;;;13.30;6.63;;;;;;;4.87;63.51;94129.41;6190163;23;20146;-86
2024/01/07 03:55:59;;;;;;;12.73;7.03;;;;;;;5.07;62.85;94132.31;6165154;23;20011;-86
2024/01/07 03:58:25;;;;;;;12.60;6.57;;;;;;;5.06;63.06;94124.75;6189044;23;20009;-86
2024/01/07 04:00:50;;;;;;;10.68;6.13;;;;;;;4.99;63.05;94127.22;6140338;23;20032;-86
2024/01/07 04:03:15;;;;;;;10.50;5.82;;;;;;;5.07;63.06;94134.13;6165002;23;20051;-86
2024/01/07 04:05:45;;;;;;;11.48;6.10;;;;;;;4.96;62.91;94127.56;6140147;23;20086;-86
2024/01/07 04:08:11;;;;;;;12.27;6.22;;;;;;;5.14;62.75;94137.63;6165092;23;20020;-86
2024/01/07 04:10:37;;;;;;;9.70;5.72;;;;;;;5.10;62.97;94141.47;6164543;23;20040;-86
2024/01/07 04:13:03;;;;;;;11.00;6.20;;;;;;;5.21;62.52;94130.78;6189286;23;20020;-86
2024/01/07 04:15:32;;;;;;;10.00;5.82;;;;;;;5.26;62.75;94148.34;6164599;23;20047;-86
2024/01/07 04:18:01;;;;;;;11.32;6.60;;;;;;;5.07;63.25;94144.41;6189444;23;20005;-86
2024/01/07 04:23:02;;;;;;;11.18;6.13;;;;;;;5.25;62.59;94147.53;6211483;23;20021;-85
2024/01/07 04:25:28;;;;;;;12.38;6.88;;;;;;;5.17;62.64;94131.31;6189585;23;20008;-85
2024/01/07 04:27:54;;;;;;;14.27;6.72;;;;;;;5.26;62.95;94151.72;6164143;23;20016;-84
2024/01/07 04:30:19;;;;;;;58.97;9.02;;;;;;;4.90;63.67;94143.69;6164693;23;20044;-85
2024/01/07 04:32:45;;;;;;;26.77;7.32;;;;;;;4.91;63.52;94147.88;6164449;23;20062;-86
2024/01/07 04:37:46;;;;;;;13.27;6.80;;;;;;;4.75;64.06;94153.13;6201390;23;20016;-85
2024/01/07 04:40:14;;;;;;;15.27;7.35;;;;;;;4.89;63.33;94142.91;6193560;23;20012;-85
2024/01/07 04:42:40;;;;;;;12.45;6.60;;;;;;;4.78;63.75;94148.44;6218839;23;20062;-85
2024/01/07 04:45:05;;;;;;;15.43;7.10;;;;;;;4.76;63.89;94142.66;6194232;23;20012;-85
2024/01/07 04:47:36;;;;;;;12.60;6.72;;;;;;;4.57;64.07;94146.44;6169037;23;20111;-85
2024/01/07 04:50:02;;;;;;;13.18;6.90;;;;;;;4.79;63.69;94150.03;6219263;23;20027;-85
2024/01/07 04:52:28;;;;;;;14.75;7.00;;;;;;;4.75;63.53;94143.59;6194020;23;20004;-85
2024/01/07 04:54:54;;;;;;;16.63;7.22;;;;;;;4.77;63.84;94157.13;6206388;23;20027;-85
2024/01/07 04:57:20;;;;;;;14.93;7.25;;;;;;;4.81;64.13;94144.72;6164404;23;20016;-85
2024/01/07 04:59:48;;;;;;;13.75;6.82;;;;;;;4.81;63.77;94165.31;6163836;23;20095;-86
2024/01/07 05:02:14;;;;;;;16.80;7.40;;;;;;;4.88;64.05;94174.00;6188466;23;20056;-86
2024/01/07 05:04:41;;;;;;;12.15;6.13;;;;;;;4.72;64.01;94166.31;6188565;23;20066;-85
2024/01/07 05:07:06;;;;;;;16.90;7.38;;;;;;;4.76;64.06;94152.13;6164163;23;20035;-85
2024/01/07 05:09:32;;;;;;;12.30;6.35;;;;;;;4.79;64.36;94170.63;6163725;23;20051;-85
2024/01/07 05:11:58;;;;;;;12.75;6.57;;;;;;;4.73;64.26;94163.59;6189218;23;20004;-85
2024/01/07 05:14:24;;;;;;;13.88;7.28;;;;;;;4.97;63.54;94174.75;6139267;23;20009;-85
2024/01/07 05:16:49;;;;;;;12.55;6.65;;;;;;;5.00;62.84;94167.47;6164142;23;20009;-87
2024/01/07 05:19:15;;;;;;;13.15;6.80;;;;;;;4.91;63.42;94173.63;6164401;23;20111;-85
2024/01/07 05:21:42;;;;;;;12.70;6.50;;;;;;;5.06;62.98;94174.56;6139675;23;20011;-85
2024/01/07 05:24:11;;;;;;;11.18;6.30;;;;;;;4.81;63.76;94160.97;6188735;23;20016;-86
2024/01/07 05:26:43;;;;;;;12.15;6.80;;;;;;;4.82;63.29;94164.38;6188172;23;20008;-86
2024/01/07 05:29:09;;;;;;;10.88;6.03;;;;;;;4.89;63.68;94175.59;6188479;23;20009;-86
2024/01/07 05:31:34;;;;;;;12.02;6.63;;;;;;;4.98;63.33;94176.34;6188520;23;20013;-86
2024/01/07 05:34:00;;;;;;;11.43;6.30;;;;;;;5.02;63.61;94178.41;6161986;23;20000;-86
2024/01/07 05:36:29;;;;;;;10.70;6.07;;;;;;;4.88;63.68;94172.22;6162382;23;20015;-85
2024/01/07 05:38:54;;;;;;;10.05;5.70;;;;;;;4.89;63.52;94178.97;6163157;23;20016;-86
2024/01/07 05:41:20;;;;;;;11.27;6.28;;;;;;;4.95;63.50;94187.81;6163685;23;20005;-86
2024/01/07 05:43:46;;;;;;;10.38;5.72;;;;;;;4.88;63.93;94176.56;6163876;23;20070;-86
2024/01/07 05:46:14;;;;;;;10.85;5.55;;;;;;;4.89;63.44;94178.16;6188697;23;20036;-86
2024/01/07 05:48:49;;;;;;;11.43;6.13;;;;;;;4.92;63.66;94177.03;6139916;23;20012;-86
2024/01/07 05:51:16;;;;;;;11.02;6.00;;;;;;;5.05;62.98;94172.94;6188728;23;20065;-86
2024/01/07 05:56:10;;;;;;;10.95;6.38;;;;;;;4.95;63.63;94171.53;6210623;23;20175;-86
2024/01/07 05:58:35;;;;;;;12.70;5.90;;;;;;;5.03;63.54;94194.69;6188210;23;20028;-86
2024/01/07 06:01:03;;;;;;;11.30;6.40;;;;;;;5.02;62.80;94193.88;6188067;23;20008;-86
2024/01/07 06:03:28;;;;;;;10.90;5.93;;;;;;;4.95;63.10;94192.97;6188315;23;20004;-86
2024/01/07 06:05:54;;;;;;;9.90;5.25;;;;;;;4.99;62.96;94198.56;6188583;23;20001;-86
2024/01/07 06:08:19;;;;;;;9.85;5.45;;;;;;;4.95;63.09;94189.56;6163358;23;20012;-86
2024/01/07 06:10:45;;;;;;;7.13;4.40;;;;;;;5.10;63.34;94198.19;6163308;23;20051;-86
2024/01/07 06:13:10;;;;;;;6.70;3.95;;;;;;;5.31;62.41;94195.00;6163208;23;20019;-86
2024/01/07 06:15:36;;;;;;;5.63;3.85;;;;;;;5.27;62.77;94197.16;6163556;23;20008;-85
2024/01/07 06:18:04;;;;;;;7.95;4.22;;;;;;;5.24;62.49;94201.84;6163653;23;20013;-86
2024/01/07 06:20:30;;;;;;;7.00;4.38;;;;;;;5.21;62.34;94199.59;6188093;23;20012;-86
2024/01/07 06:22:55;;;;;;;7.05;4.20;;;;;;;5.17;62.70;94206.06;6163661;23;20004;-86
2024/01/07 06:25:21;;;;;;;6.35;3.90;;;;;;;5.15;62.66;94197.69;6187734;23;20000;-86
2024/01/07 06:27:46;;;;;;;6.93;4.18;;;;;;;5.15;62.79;94205.44;6162649;23;20004;-85
2024/01/07 06:30:13;;;;;;;6.05;3.70;;;;;;;5.01;62.90;94201.81;6188263;23;20009;-86
2024/01/07 06:32:38;;;;;;;6.38;3.88;;;;;;;5.18;62.95;94202.50;6187607;23;19996;-86
2024/01/07 06:35:04;;;;;;;6.43;3.60;;;;;;;5.12;62.96;94214.28;6187566;23;20091;-86
2024/01/07 06:37:30;;;;;;;5.78;3.63;;;;;;;5.13;62.80;94200.44;6163001;23;20012;-86
2024/01/07 06:39:56;;;;;;;6.00;3.70;;;;;;;5.25;62.30;94211.16;6163136;23;20087;-86
2024/01/07 06:42:22;;;;;;;6.38;3.50;;;;;;;5.32;62.56;94214.69;6187581;23;20022;-86
2024/01/07 06:44:47;;;;;;;5.35;3.20;;;;;;;5.07;63.26;94217.38;6163245;23;20009;-86
2024/01/07 06:47:13;;;;;;;5.70;3.50;;;;;;;5.06;63.33;94214.97;6155119;23;20020;-85
2024/01/07 06:49:42;;;;;;;5.80;3.35;;;;;;;5.12;63.01;94210.91;6080483;23;20013;-85
2024/01/07 06:52:08;;;;;;;5.90;3.15;;;;;;;5.06;63.24;94213.22;6128434;23;20028;-86
2024/01/07 06:54:33;;;;;;;6.18;3.58;;;;;;;5.31;62.42;94225.94;6128796;23;20007;-86
2024/01/07 06:57:00;;;;;;;5.28;3.35;;;;;;;5.27;62.41;94222.13;6104188;23;20020;-85
2024/01/07 06:59:25;;;;;;;5.72;3.85;;;;;;;5.03;63.33;94223.06;6104456;23;20011;-86
2024/01/07 07:01:50;;;;;;;5.32;3.22;;;;;;;5.02;64.05;94229.16;6127924;23;20023;-86
2024/01/07 07:04:16;;;;;;;6.40;3.58;;;;;;;4.87;63.37;94221.31;6104615;23;20056;-86
2024/01/07 07:06:41;;;;;;;6.18;3.70;;;;;;;4.87;64.25;94217.00;6104376;23;20010;-86
2024/01/07 07:09:08;;;;;;;6.78;3.40;;;;;;;4.94;64.08;94231.78;6080442;23;20068;-86
2024/01/07 07:11:33;;;;;;;8.30;4.20;;;;;;;5.02;63.55;94235.13;6104103;23;20005;-86
2024/01/07 07:14:00;;;;;;;6.20;3.67;;;;;;;4.95;63.73;94228.22;6103821;23;20010;-86
2024/01/07 07:16:26;;;;;;;5.38;3.20;;;;;;;4.89;63.51;94227.09;6103161;23;20025;-85
2024/01/07 07:18:52;;;;;;;5.43;3.47;;;;;;;4.93;63.55;94230.97;6080274;23;20014;-86
2024/01/07 07:21:17;;;;;;;7.75;4.05;;;;;;;4.97;63.18;94227.09;6104283;23;20009;-86
2024/01/07 07:23:43;;;;;;;6.30;3.50;;;;;;;4.98;63.30;94248.50;6080530;23;20013;-86
2024/01/07 07:26:08;;;;;;;7.13;3.92;;;;;;;4.92;63.75;94244.03;6127100;23;20009;-86
2024/01/07 07:28:34;;;;;;;7.38;3.88;;;;;;;4.87;63.96;94247.91;6080495;23;20028;-86
2024/01/07 07:30:59;;;;;;;7.05;3.33;;;;;;;5.07;63.06;94250.09;6081164;23;20117;-85
2024/01/07 07:33:33;;;;;;;6.30;3.30;;;;;;;4.98;63.37;94233.84;6087082;23;20021;-86
2024/01/07 07:35:59;;;;;;;5.18;3.28;;;;;;;4.89;63.73;94240.00;6106121;23;20005;-86
2024/01/07 07:38:24;;;;;;;5.32;3.00;;;;;;;4.83;63.87;94233.72;6105980;23;20092;-87
2024/01/07 07:40:52;;;;;;;6.75;3.45;;;;;;;4.80;64.26;94253.91;6105687;23;20006;-86
2024/01/07 07:43:20;;;;;;;5.50;3.45;;;;;;;4.89;63.65;94245.16;6130292;23;20012;-87
2024/01/07 07:45:46;;;;;;;6.05;3.58;;;;;;;5.16;63.05;94250.84;6130211;23;20013;-87
2024/01/07 07:48:11;;;;;;;6.72;3.72;;;;;;;5.07;62.93;94244.94;6110745;23;20021;-86
2024/01/07 07:50:37;;;;;;;5.70;3.53;;;;;;;4.94;63.92;94255.78;6135025;23;20028;-86
2024/01/07 07:53:02;;;;;;;8.05;3.88;;;;;;;5.30;62.32;94257.88;6159547;23;20011;-86
2024/01/07 07:55:28;;;;;;;8.55;5.00;;;;;;;5.08;62.93;94265.41;6134136;23;20012;-87
2024/01/07 07:57:54;;;;;;;9.27;5.20;;;;;;;5.10;63.14;94260.03;6158599;23;20044;-86
2024/01/07 08:00:19;;;;;;;10.27;5.25;;;;;;;4.87;63.53;94259.97;6184080;23;20024;-86
2024/01/07 08:02:45;;;;;;;8.18;4.60;;;;;;;4.76;64.59;94261.16;6159192;23;20009;-86
2024/01/07 08:05:11;;;;;;;9.25;4.72;;;;;;;4.83;64.21;94266.44;6159262;23;20013;-86
2024/01/07 08:07:36;;;;;;;7.95;4.63;;;;;;;4.94;63.72;94270.44;6158600;23;20005;-86
2024/01/07 08:10:02;;;;;;;6.47;3.90;;;;;;;4.96;63.65;94261.56;6133801;23;20005;-85
2024/01/07 08:12:28;;;;;;;7.05;3.92;;;;;;;5.25;63.11;94271.28;6183584;23;20001;-85
2024/01/07 08:14:53;;;;;;;6.25;3.70;;;;;;;5.13;63.76;94266.66;6158494;23;20012;-86
2024/01/07 08:17:19;;;;;;;6.65;3.97;;;;;;;5.09;63.89;94269.56;6133904;23;20009;-86
2024/01/07 08:19:44;;;;;;;8.63;4.85;;;;;;;5.18;63.49;94274.69;6159102;23;20016;-86
2024/01/07 08:22:10;;;;;;;11.15;6.90;;;;;;;5.11;63.37;94266.81;6158732;23;20004;-86
2024/01/07 08:24:35;;;;;;;8.57;5.75;;;;;;;5.18;63.61;94280.66;6158181;23;20063;-86
2024/01/07 08:27:04;;;;;;;47.88;6.72;;;;;;;5.02;63.35;94286.66;6159543;23;20005;-86
2024/01/07 08:29:30;;;;;;;8.88;5.28;;;;;;;4.85;64.31;94274.78;6159271;23;20035;-86
2024/01/07 08:31:55;;;;;;;9.27;5.68;;;;;;;4.74;64.37;94270.00;6159556;23;20005;-86
2024/01/07 08:34:21;;;;;;;7.43;4.40;;;;;;;5.06;63.21;94285.38;6183799;23;20060;-85
2024/01/07 08:36:46;;;;;;;6.75;4.30;;;;;;;4.96;63.48;94276.22;6158268;23;20064;-85
2024/01/07 08:39:16;;;;;;;6.43;3.90;;;;;;;4.98;63.46;94280.22;6134772;23;20016;-86
2024/01/07 08:41:41;;;;;;;7.40;4.25;;;;;;;4.98;63.92;94300.84;6183883;23;20037;-86
2024/01/07 08:44:10;;;;;;;7.53;4.30;;;;;;;5.01;63.64;94290.22;6158804;23;20013;-86
2024/01/07 08:46:35;;;;;;;8.00;4.25;;;;;;;5.04;64.04;94299.38;6183761;23;20013;-86
2024/01/07 08:49:02;;;;;;;7.55;4.65;;;;;;;5.16;63.30;94284.34;6182995;23;20025;-85
2024/01/07 08:51:29;;;;;;;7.90;4.43;;;;;;;5.15;63.27;94285.34;6183165;23;20017;-86
2024/01/07 08:53:55;;;;;;;5.80;3.63;;;;;;;5.19;63.21;94289.97;6183148;23;20008;-87
2024/01/07 08:56:20;;;;;;;6.10;3.90;;;;;;;5.25;63.36;94294.50;6182742;23;20005;-85
2024/01/07 08:58:46;;;;;;;7.50;4.40;;;;;;;5.29;62.73;94288.03;6133303;23;20063;-86
2024/01/07 09:01:14;;;;;;;8.20;4.93;;;;;;;5.27;62.95;94305.44;6157647;23;20027;-86
2024/01/07 09:03:40;;;;;;;19.52;5.72;;;;;;;5.29;62.13;94311.22;6157275;23;20013;-85
2024/01/07 09:06:05;;;;;;;7.82;4.07;;;;;;;5.09;63.13;94300.50;6156187;23;20107;-86
2024/01/07 09:08:31;;;;;;;5.65;3.80;;;;;;;4.77;64.03;94301.38;6156344;23;20070;-85
2024/01/07 09:10:57;;;;;;;5.85;4.00;;;;;;;4.85;64.21;94314.25;6157922;23;20100;-86
2024/01/07 09:13:22;;;;;;;6.88;3.78;;;;;;;4.90;64.45;94313.75;6133324;23;20037;-85
2024/01/07 09:15:48;;;;;;;6.18;3.92;;;;;;;4.99;64.08;94309.38;6158599;23;20017;-85
2024/01/07 09:18:17;;;;;;;6.05;3.90;;;;;;;5.12;63.41;94325.13;6132140;23;20025;-85
2024/01/07 09:20:42;;;;;;;5.50;3.95;;;;;;;5.18;63.32;94324.47;6133437;23;20009;-85
2024/01/07 09:23:08;;;;;;;7.00;4.20;;;;;;;5.26;63.09;94324.44;6158877;23;20012;-86
2024/01/07 09:25:33;;;;;;;6.82;4.63;;;;;;;5.33;63.20;94334.91;6158704;23;20013;-86
2024/01/07 09:27:59;;;;;;;7.53;6.20;;;;;;;5.48;62.35;94322.09;6156984;23;20009;-86
2024/01/07 09:30:24;;;;;;;5.47;4.15;;;;;;;5.67;61.84;94320.88;6183921;23;20013;-86
2024/01/07 09:32:50;;;;;;;5.22;3.70;;;;;;;5.73;61.69;94334.88;6157916;23;20007;-86
2024/01/07 09:35:15;;;;;;;7.68;4.00;;;;;;;5.91;60.77;94337.22;6158783;23;20005;-85
2024/01/07 09:37:41;;;;;;;6.43;3.75;;;;;;;5.79;61.15;94332.44;6133490;23;20013;-86
2024/01/07 09:40:07;;;;;;;8.07;4.03;;;;;;;5.80;60.99;94315.97;6158905;23;20044;-86
2024/01/07 09:42:33;;;;;;;6.63;4.10;;;;;;;5.61;61.89;94337.03;6134119;23;20040;-85
2024/01/07 09:45:03;;;;;;;5.20;3.53;;;;;;;5.30;62.99;94332.66;6183172;23;20009;-85
2024/01/07 09:47:29;;;;;;;6.87;3.97;;;;;;;5.41;62.68;94340.03;6158288;23;20017;-86
2024/01/07 09:49:58;;;;;;;4.78;3.78;;;;;;;5.49;62.79;94327.09;6158335;23;20076;-85
2024/01/07 09:52:25;;;;;;;5.38;3.10;;;;;;;5.86;61.43;94338.53;6135106;23;20009;-85
2024/01/07 09:54:57;;;;;;;5.65;3.33;;;;;;;5.64;61.76;94336.72;6158441;23;20013;-86
2024/01/07 09:57:22;;;;;;;5.20;3.50;;;;;;;6.00;60.90;94331.06;6182355;23;20012;-86
2024/01/07 09:59:48;;;;;;;4.63;3.08;;;;;;;5.97;60.85;94337.34;6133469;23;20069;-85
2024/01/07 10:02:15;;;;;;;2.95;2.35;;;;;;;6.05;60.84;94329.56;6158241;23;20002;-85
2024/01/07 10:04:41;;;;;;;2.17;1.58;;;;;;;6.10;60.67;94325.69;6182846;23;20035;-85
2024/01/07 10:07:06;;;;;;;6.30;4.50;;;;;;;6.30;59.78;94324.22;6157643;23;20009;-86
2024/01/07 10:09:33;;;;;;;6.25;4.25;;;;;;;6.10;60.52;94329.06;6158115;23;20009;-85
2024/01/07 10:12:00;;;;;;;5.35;3.90;;;;;;;6.04;60.55;94332.31;6183013;23;20008;-86
2024/01/07 10:14:25;;;;;;;6.63;4.03;;;;;;;5.81;61.79;94327.91;6182585;23;20005;-85
2024/01/07 10:16:52;;;;;;;4.90;3.65;;;;;;;5.71;62.57;94336.81;6181862;23;20076;-85
2024/01/07 10:19:21;;;;;;;5.28;3.78;;;;;;;5.71;61.81;94340.19;6184358;23;20056;-85
2024/01/07 10:22:01;;;;;;;6.18;4.10;;;;;;;5.61;62.18;94334.47;6183212;23;20001;-85
2024/01/07 10:24:36;;;;;;;4.50;3.40;;;;;;;5.99;61.23;94335.41;6183009;23;20021;-85
2024/01/07 10:27:02;;;;;;;4.60;3.42;;;;;;;5.86;61.73;94335.94;6182198;23;20064;-85
2024/01/07 10:29:27;;;;;;;6.07;3.72;;;;;;;6.08;60.06;94307.78;6182252;23;20013;-86
2024/01/07 10:31:57;;;;;;;5.13;3.70;;;;;;;6.13;60.53;94320.97;6157585;23;20012;-85
2024/01/07 10:34:23;;;;;;;4.00;3.55;;;;;;;5.97;61.22;94328.81;6182721;23;20005;-85
2024/01/07 10:36:52;;;;;;;3.70;3.10;;;;;;;6.04;60.94;94332.31;6182332;23;20001;-85
2024/01/07 10:39:19;;;;;;;4.85;3.85;;;;;;;5.94;61.54;94329.13;6182197;23;20013;-85
2024/01/07 10:41:46;;;;;;;6.40;4.90;;;;;;;5.86;61.37;94329.97;6157859;23;20016;-85
2024/01/07 10:44:12;;;;;;;9.15;6.22;;;;;;;5.87;61.54;94329.00;6182592;23;20016;-85
2024/01/07 10:46:39;;;;;;;11.25;7.65;;;;;;;5.92;61.27;94321.56;6157827;23;20009;-85
2024/01/07 10:49:12;;;;;;;14.18;8.90;;;;;;;6.11;60.20;94325.50;6157729;23;20051;-86
2024/01/07 10:51:37;;;;;;;14.55;9.48;;;;;;;6.07;60.58;94317.31;6182058;23;20012;-85
2024/01/07 10:54:03;;;;;;;13.90;9.20;;;;;;;6.09;60.45;94324.84;6133029;23;20009;-85
2024/01/07 10:56:35;;;;;;;14.15;9.38;;;;;;;6.02;60.42;94313.63;6132281;23;20025;-85
2024/01/07 10:59:00;;;;;;;12.88;8.68;;;;;;;6.05;60.58;94315.84;6182184;23;20005;-86
2024/01/07 11:01:26;;;;;;;11.23;7.78;;;;;;;5.92;61.19;94323.31;6132962;23;20063;-85
2024/01/07 11:04:39;;;;;;;9.00;6.93;;;;;;;5.80;61.23;94321.13;6132246;23;20074;-85
2024/01/07 11:07:32;;;;;;;11.07;6.80;;;;;;;5.86;60.70;94317.88;6120844;23;20097;-85
2024/01/07 11:10:17;;;;;;;9.20;6.20;;;;;;;5.73;61.27;94321.97;6096010;23;20009;-85
2024/01/07 11:12:43;;;;;;;8.60;6.20;;;;;;;5.68;62.17;94327.66;6160641;23;20021;-85
2024/01/07 11:15:08;;;;;;;6.70;5.03;;;;;;;5.95;61.24;94323.00;6157650;23;20005;-84
2024/01/07 11:17:37;;;;;;;8.23;5.70;;;;;;;5.87;61.02;94310.94;6181333;23;20218;-85
2024/01/07 11:20:07;;;;;;;8.13;5.50;;;;;;;5.87;61.31;94316.09;6181774;23;20008;-85
2024/01/07 11:22:34;;;;;;;7.73;5.77;;;;;;;5.92;61.22;94315.56;6157662;23;20052;-85
2024/01/07 11:25:01;;;;;;;9.40;6.38;;;;;;;6.06;60.78;94314.88;6157496;23;20008;-85
2024/01/07 11:27:31;;;;;;;9.38;6.45;;;;;;;5.79;61.18;94305.84;6157898;23;20045;-85
2024/01/07 11:30:04;;;;;;;8.93;6.50;;;;;;;5.84;61.53;94306.91;6132922;23;20096;-85
2024/01/07 11:32:30;;;;;;;9.32;6.57;;;;;;;5.95;61.47;94312.66;6182117;23;20076;-85
2024/01/07 11:34:56;;;;;;;7.85;6.15;;;;;;;5.85;61.38;94305.16;6181538;23;20009;-85
2024/01/07 11:37:22;;;;;;;8.07;6.03;;;;;;;5.77;61.74;94295.69;6181808;23;20009;-85
2024/01/07 11:39:50;;;;;;;8.63;6.43;;;;;;;6.07;61.05;94295.81;6181577;23;20055;-86
2024/01/07 11:42:16;;;;;;;8.20;6.38;;;;;;;5.92;61.71;94297.50;6157600;23;20005;-85
2024/01/07 11:45:10;;;;;;;8.48;6.47;;;;;;;5.72;62.13;94303.13;6157758;23;20016;-86
2024/01/07 11:47:36;;;;;;;9.52;6.80;;;;;;;6.00;61.36;94300.09;6178639;23;20021;-85